createdAt,value
2017-01-23T00:00:53.883Z,0
2017-01-23T00:01:54.295Z,0
2017-01-23T00:02:54.291Z,0
2017-01-23T00:03:54.303Z,0
2017-01-23T00:04:54.691Z,0
2017-01-23T00:05:54.283Z,0
2017-01-23T00:06:54.687Z,0
2017-01-23T00:07:53.867Z,0
2017-01-23T00:08:54.271Z,0
2017-01-23T00:09:53.852Z,0
2017-01-23T00:10:53.431Z,0
2017-01-23T00:11:54.272Z,0
2017-01-23T00:12:53.839Z,0
2017-01-23T00:13:54.255Z,0
2017-01-23T00:14:54.251Z,0
2017-01-23T00:15:54.248Z,0
2017-01-23T00:16:54.235Z,0
2017-01-23T00:17:53.828Z,0
2017-01-23T00:18:54.644Z,0
2017-01-23T00:19:54.263Z,0
2017-01-23T00:20:54.647Z,0
2017-01-23T00:21:54.632Z,0
2017-01-23T00:22:54.628Z,0
2017-01-23T00:23:54.216Z,0
2017-01-23T00:24:53.836Z,0
2017-01-23T00:25:54.612Z,0
2017-01-23T00:26:53.784Z,0
2017-01-23T00:27:54.196Z,0
2017-01-23T00:28:53.787Z,0
2017-01-23T00:29:54.195Z,0
2017-01-23T00:30:53.372Z,0
2017-01-23T00:31:54.592Z,0
2017-01-23T00:32:54.593Z,0
2017-01-23T00:33:53.776Z,0
2017-01-23T00:34:53.767Z,0
2017-01-23T00:35:54.164Z,0
2017-01-23T00:36:54.164Z,0
2017-01-23T00:37:54.190Z,0
2017-01-23T00:38:54.160Z,0
2017-01-23T00:39:54.148Z,0
2017-01-23T00:40:53.741Z,0
2017-01-23T00:41:54.176Z,0
2017-01-23T00:42:54.139Z,0
2017-01-23T00:43:54.136Z,0
2017-01-23T00:44:54.128Z,0
2017-01-23T00:45:54.117Z,0
2017-01-23T00:46:53.712Z,0
2017-01-23T00:47:54.532Z,0
2017-01-23T00:48:53.700Z,0
2017-01-23T00:49:54.531Z,0
2017-01-23T00:50:54.112Z,0
2017-01-23T00:51:54.103Z,0
2017-01-23T00:52:54.514Z,0
2017-01-23T00:53:53.691Z,0
2017-01-23T00:54:53.707Z,0
2017-01-23T00:55:54.502Z,0
2017-01-23T00:56:53.670Z,0
2017-01-23T00:57:53.677Z,0
2017-01-23T00:58:54.482Z,0
2017-01-23T00:59:54.066Z,0
2017-01-23T01:00:53.658Z,0
2017-01-23T01:01:53.653Z,0
2017-01-23T01:02:53.649Z,0
2017-01-23T01:03:54.057Z,0
2017-01-23T01:04:54.053Z,0
2017-01-23T01:05:54.492Z,0
2017-01-23T01:06:53.637Z,0
2017-01-23T01:07:54.040Z,0
2017-01-23T01:08:54.448Z,0
2017-01-23T01:09:54.048Z,0
2017-01-23T01:10:54.024Z,0
2017-01-23T01:11:54.024Z,0
2017-01-23T01:12:54.024Z,0
2017-01-23T01:13:54.012Z,0
2017-01-23T01:14:54.059Z,0
2017-01-23T01:15:53.591Z,0
2017-01-23T01:16:54.416Z,0
2017-01-23T01:17:53.596Z,0
2017-01-23T01:18:53.995Z,0
2017-01-23T01:19:54.392Z,0
2017-01-23T01:20:54.396Z,0
2017-01-23T01:21:53.988Z,0
2017-01-23T01:22:53.163Z,0
2017-01-23T01:23:53.976Z,0
2017-01-23T01:24:53.560Z,0
2017-01-23T01:25:53.964Z,0
2017-01-23T01:26:53.956Z,0
2017-01-23T01:27:53.965Z,0
2017-01-23T01:28:53.548Z,0
2017-01-23T01:29:53.948Z,0
2017-01-23T01:30:54.380Z,0
2017-01-23T01:31:53.123Z,0
2017-01-23T01:32:53.936Z,0
2017-01-23T01:33:53.529Z,0
2017-01-23T01:34:53.936Z,0
2017-01-23T01:35:54.336Z,0
2017-01-23T01:36:53.509Z,0
2017-01-23T01:37:54.333Z,0
2017-01-23T01:38:53.916Z,0
2017-01-23T01:39:53.916Z,0
2017-01-23T01:40:53.900Z,0
2017-01-23T01:41:53.913Z,0
2017-01-23T01:42:54.308Z,0
2017-01-23T01:43:53.481Z,0
2017-01-23T01:44:53.069Z,0
2017-01-23T01:45:53.889Z,0
2017-01-23T01:46:53.889Z,0
2017-01-23T01:47:53.885Z,0
2017-01-23T01:48:53.880Z,0
2017-01-23T01:49:53.877Z,0
2017-01-23T01:50:54.301Z,0
2017-01-23T01:51:53.453Z,0
2017-01-23T01:52:53.861Z,0
2017-01-23T01:53:54.265Z,0
2017-01-23T01:54:53.437Z,0
2017-01-23T01:55:54.269Z,0
2017-01-23T01:56:54.256Z,0
2017-01-23T01:57:53.841Z,0
2017-01-23T01:58:54.249Z,0
2017-01-23T01:59:53.421Z,0
2017-01-23T02:00:53.417Z,0
2017-01-23T02:01:53.405Z,0
2017-01-23T02:02:53.816Z,0
2017-01-23T02:03:53.404Z,0
2017-01-23T02:04:53.393Z,0
2017-01-23T02:05:54.224Z,0
2017-01-23T02:06:52.972Z,0
2017-01-23T02:07:53.389Z,0
2017-01-23T02:08:53.800Z,0
2017-01-23T02:09:53.801Z,0
2017-01-23T02:10:54.208Z,0
2017-01-23T02:11:53.368Z,0
2017-01-23T02:12:53.784Z,0
2017-01-23T02:13:54.184Z,0
2017-01-23T02:14:53.772Z,0
2017-01-23T02:15:53.768Z,0
2017-01-23T02:16:53.760Z,0
2017-01-23T02:17:53.344Z,0
2017-01-23T02:18:53.767Z,0
2017-01-23T02:19:53.752Z,0
2017-01-23T02:20:53.744Z,0
2017-01-23T02:21:53.743Z,0
2017-01-23T02:22:53.744Z,0
2017-01-23T02:23:54.152Z,0
2017-01-23T02:24:53.324Z,0
2017-01-23T02:25:53.320Z,0
2017-01-23T02:26:53.340Z,0
2017-01-23T02:27:53.312Z,0
2017-01-23T02:28:53.712Z,0
2017-01-23T02:29:53.716Z,0
2017-01-23T02:30:54.120Z,0
2017-01-23T02:31:53.708Z,0
2017-01-23T02:32:54.140Z,0
2017-01-23T02:33:54.112Z,0
2017-01-23T02:34:53.284Z,0
2017-01-23T02:35:53.688Z,0
2017-01-23T02:36:54.115Z,0
2017-01-23T02:37:53.684Z,0
2017-01-23T02:38:54.093Z,0
2017-01-23T02:39:53.676Z,0
2017-01-23T02:40:53.672Z,0
2017-01-23T02:41:53.255Z,0
2017-01-23T02:42:53.256Z,0
2017-01-23T02:43:53.669Z,0
2017-01-23T02:44:53.653Z,0
2017-01-23T02:45:53.244Z,0
2017-01-23T02:46:53.652Z,0
2017-01-23T02:47:53.229Z,0
2017-01-23T02:48:53.645Z,0
2017-01-23T02:49:53.629Z,0
2017-01-23T02:50:54.050Z,0
2017-01-23T02:51:54.045Z,0
2017-01-23T02:52:53.625Z,0
2017-01-23T02:53:54.033Z,0
2017-01-23T02:54:54.029Z,0
2017-01-23T02:55:54.026Z,0
2017-01-23T02:56:53.602Z,0
2017-01-23T02:57:53.609Z,0
2017-01-23T02:58:54.009Z,0
2017-01-23T02:59:54.009Z,0
2017-01-23T03:00:53.190Z,0
2017-01-23T03:01:53.589Z,0
2017-01-23T03:02:53.999Z,0
2017-01-23T03:03:53.986Z,0
2017-01-23T03:04:53.990Z,0
2017-01-23T03:05:53.990Z,0
2017-01-23T03:06:53.975Z,0
2017-01-23T03:07:53.564Z,0
2017-01-23T03:08:53.565Z,0
2017-01-23T03:09:53.971Z,0
2017-01-23T03:10:53.963Z,0
2017-01-23T03:11:53.137Z,0
2017-01-23T03:12:53.135Z,0
2017-01-23T03:13:53.140Z,0
2017-01-23T03:14:53.951Z,0
2017-01-23T03:15:53.532Z,0
2017-01-23T03:16:53.117Z,0
2017-01-23T03:17:53.556Z,0
2017-01-23T03:18:53.938Z,0
2017-01-23T03:19:53.524Z,0
2017-01-23T03:20:53.108Z,0
2017-01-23T03:21:53.924Z,0
2017-01-23T03:22:53.925Z,0
2017-01-23T03:23:53.085Z,0
2017-01-23T03:24:53.089Z,0
2017-01-23T03:25:53.082Z,0
2017-01-23T03:26:53.497Z,0
2017-01-23T03:27:53.894Z,0
2017-01-23T03:28:53.077Z,0
2017-01-23T03:29:53.894Z,12
2017-01-23T03:30:53.474Z,0
2017-01-23T03:31:53.066Z,0
2017-01-23T03:32:53.470Z,0
2017-01-23T03:33:53.458Z,0
2017-01-23T03:34:53.866Z,0
2017-01-23T03:35:53.454Z,0
2017-01-23T03:36:53.458Z,0
2017-01-23T03:37:53.447Z,0
2017-01-23T03:38:53.843Z,0
2017-01-23T03:39:53.850Z,0
2017-01-23T03:40:53.439Z,0
2017-01-23T03:41:53.023Z,0
2017-01-23T03:42:53.831Z,0
2017-01-23T03:43:53.423Z,0
2017-01-23T03:44:53.415Z,0
2017-01-23T03:45:53.824Z,0
2017-01-23T03:46:53.408Z,0
2017-01-23T03:47:53.816Z,0
2017-01-23T03:48:53.824Z,0
2017-01-23T03:49:53.399Z,0
2017-01-23T03:50:52.980Z,0
2017-01-23T03:51:53.808Z,0
2017-01-23T03:52:53.810Z,0
2017-01-23T03:53:53.388Z,0
2017-01-23T03:54:53.796Z,0
2017-01-23T03:55:53.384Z,0
2017-01-23T03:56:53.385Z,0
2017-01-23T03:57:52.957Z,0
2017-01-23T03:58:53.368Z,0
2017-01-23T03:59:53.364Z,0
2017-01-23T04:00:53.361Z,0
2017-01-23T04:01:53.357Z,0
2017-01-23T04:02:52.526Z,0
2017-01-23T04:03:53.757Z,0
2017-01-23T04:04:53.350Z,0
2017-01-23T04:05:53.337Z,0
2017-01-23T04:06:53.334Z,0
2017-01-23T04:07:53.329Z,0
2017-01-23T04:08:53.741Z,0
2017-01-23T04:09:53.733Z,0
2017-01-23T04:10:53.729Z,0
2017-01-23T04:11:53.334Z,0
2017-01-23T04:12:53.318Z,0
2017-01-23T04:13:53.310Z,0
2017-01-23T04:14:53.307Z,0
2017-01-23T04:15:52.466Z,0
2017-01-23T04:16:53.294Z,0
2017-01-23T04:17:53.310Z,0
2017-01-23T04:18:53.287Z,0
2017-01-23T04:19:52.899Z,0
2017-01-23T04:20:53.275Z,0
2017-01-23T04:21:53.279Z,0
2017-01-23T04:22:53.267Z,0
2017-01-23T04:23:53.679Z,0
2017-01-23T04:24:53.268Z,0
2017-01-23T04:25:53.282Z,0
2017-01-23T04:26:53.668Z,0
2017-01-23T04:27:53.660Z,0
2017-01-23T04:28:52.832Z,12
2017-01-23T04:29:53.663Z,12
2017-01-23T04:30:53.232Z,0
2017-01-23T04:31:53.239Z,0
2017-01-23T04:32:53.228Z,0
2017-01-23T04:33:52.805Z,0
2017-01-23T04:34:53.633Z,0
2017-01-23T04:35:53.217Z,0
2017-01-23T04:36:53.217Z,0
2017-01-23T04:37:53.232Z,0
2017-01-23T04:38:52.797Z,0
2017-01-23T04:39:52.796Z,0
2017-01-23T04:40:53.666Z,0
2017-01-23T04:41:52.781Z,0
2017-01-23T04:42:53.197Z,0
2017-01-23T04:43:52.809Z,0
2017-01-23T04:44:53.185Z,0
2017-01-23T04:45:52.771Z,0
2017-01-23T04:46:53.177Z,0
2017-01-23T04:47:53.170Z,0
2017-01-23T04:48:53.171Z,0
2017-01-23T04:49:53.173Z,0
2017-01-23T04:50:52.746Z,0
2017-01-23T04:51:53.161Z,0
2017-01-23T04:52:52.742Z,0
2017-01-23T04:53:52.737Z,0
2017-01-23T04:54:53.586Z,0
2017-01-23T04:55:53.550Z,0
2017-01-23T04:56:52.725Z,0
2017-01-23T04:57:53.549Z,0
2017-01-23T04:58:52.718Z,0
2017-01-23T04:59:52.710Z,0
2017-01-23T05:00:53.537Z,0
2017-01-23T05:01:52.710Z,0
2017-01-23T05:02:53.117Z,0
2017-01-23T05:03:53.522Z,0
2017-01-23T05:04:53.134Z,0
2017-01-23T05:05:53.131Z,0
2017-01-23T05:06:53.098Z,0
2017-01-23T05:07:53.102Z,0
2017-01-23T05:08:53.082Z,0
2017-01-23T05:09:53.082Z,0
2017-01-23T05:10:53.487Z,12
2017-01-23T05:11:52.688Z,12
2017-01-23T05:12:53.070Z,0
2017-01-23T05:13:53.482Z,0
2017-01-23T05:14:53.063Z,0
2017-01-23T05:15:53.051Z,0
2017-01-23T05:16:53.058Z,0
2017-01-23T05:17:52.643Z,12
2017-01-23T05:18:53.486Z,12
2017-01-23T05:19:53.451Z,0
2017-01-23T05:20:53.040Z,0
2017-01-23T05:21:52.647Z,0
2017-01-23T05:22:52.622Z,0
2017-01-23T05:23:53.032Z,0
2017-01-23T05:24:53.462Z,0
2017-01-23T05:25:53.015Z,0
2017-01-23T05:26:53.015Z,0
2017-01-23T05:27:53.423Z,0
2017-01-23T05:28:53.031Z,0
2017-01-23T05:29:53.423Z,0
2017-01-23T05:30:53.003Z,0
2017-01-23T05:31:52.988Z,0
2017-01-23T05:32:52.995Z,0
2017-01-23T05:33:52.575Z,0
2017-01-23T05:34:53.400Z,0
2017-01-23T05:35:53.400Z,0
2017-01-23T05:36:52.976Z,0
2017-01-23T05:37:53.376Z,0
2017-01-23T05:38:52.547Z,0
2017-01-23T05:39:52.547Z,0
2017-01-23T05:40:53.376Z,0
2017-01-23T05:41:52.947Z,0
2017-01-23T05:42:52.947Z,0
2017-01-23T05:43:52.535Z,0
2017-01-23T05:44:52.528Z,12
2017-01-23T05:45:52.936Z,12
2017-01-23T05:46:53.344Z,0
2017-01-23T05:47:53.339Z,0
2017-01-23T05:48:52.924Z,0
2017-01-23T05:49:52.923Z,0
2017-01-23T05:50:52.508Z,0
2017-01-23T05:51:52.508Z,0
2017-01-23T05:52:52.940Z,0
2017-01-23T05:53:52.908Z,0
2017-01-23T05:54:52.896Z,0
2017-01-23T05:55:52.515Z,0
2017-01-23T05:56:52.880Z,0
2017-01-23T05:57:52.481Z,0
2017-01-23T05:58:52.889Z,0
2017-01-23T05:59:52.884Z,0
2017-01-23T06:00:52.880Z,0
2017-01-23T06:01:53.285Z,0
2017-01-23T06:02:52.872Z,0
2017-01-23T06:03:52.864Z,0
2017-01-23T06:04:52.453Z,0
2017-01-23T06:05:52.444Z,0
2017-01-23T06:06:52.441Z,0
2017-01-23T06:07:53.257Z,0
2017-01-23T06:08:53.253Z,0
2017-01-23T06:09:52.441Z,0
2017-01-23T06:10:53.250Z,0
2017-01-23T06:11:52.010Z,0
2017-01-23T06:12:53.248Z,0
2017-01-23T06:13:53.233Z,0
2017-01-23T06:14:52.820Z,0
2017-01-23T06:15:52.817Z,0
2017-01-23T06:16:53.221Z,0
2017-01-23T06:17:52.805Z,0
2017-01-23T06:18:52.809Z,0
2017-01-23T06:19:53.212Z,0
2017-01-23T06:20:52.793Z,0
2017-01-23T06:21:52.789Z,0
2017-01-23T06:22:52.794Z,0
2017-01-23T06:23:52.369Z,0
2017-01-23T06:24:52.366Z,0
2017-01-23T06:25:52.777Z,0
2017-01-23T06:26:52.773Z,0
2017-01-23T06:27:52.769Z,0
2017-01-23T06:28:52.757Z,0
2017-01-23T06:29:52.757Z,0
2017-01-23T06:30:52.754Z,0
2017-01-23T06:31:53.161Z,0
2017-01-23T06:32:52.753Z,0
2017-01-23T06:33:52.740Z,4
2017-01-23T06:34:52.737Z,4
2017-01-23T06:35:52.743Z,4
2017-01-23T06:36:52.729Z,0
2017-01-23T06:37:52.321Z,4
2017-01-23T06:38:53.129Z,4
2017-01-23T06:39:53.122Z,4
2017-01-23T06:40:53.122Z,4
2017-01-23T06:41:53.118Z,8
2017-01-23T06:42:52.702Z,4
2017-01-23T06:43:52.698Z,8
2017-01-23T06:44:52.698Z,8
2017-01-23T06:45:53.097Z,12
2017-01-23T06:46:53.106Z,12
2017-01-23T06:47:52.685Z,12
2017-01-23T06:48:52.682Z,16
2017-01-23T06:49:52.265Z,16
2017-01-23T06:50:53.078Z,16
2017-01-23T06:51:51.842Z,20
2017-01-23T06:52:52.666Z,20
2017-01-23T06:53:53.067Z,28
2017-01-23T06:54:52.682Z,28
2017-01-23T06:55:52.246Z,28
2017-01-23T06:56:52.230Z,32
2017-01-23T06:57:52.646Z,36
2017-01-23T06:58:52.638Z,40
2017-01-23T06:59:52.642Z,44
2017-01-23T07:00:52.625Z,44
2017-01-23T07:01:52.654Z,52
2017-01-23T07:02:52.619Z,56
2017-01-23T07:03:53.040Z,60
2017-01-23T07:04:52.622Z,68
2017-01-23T07:05:52.194Z,68
2017-01-23T07:06:53.029Z,76
2017-01-23T07:07:52.606Z,80
2017-01-23T07:08:52.606Z,84
2017-01-23T07:09:52.606Z,92
2017-01-23T07:10:53.006Z,96
2017-01-23T07:11:52.587Z,100
2017-01-23T07:12:52.166Z,108
2017-01-23T07:13:52.159Z,112
2017-01-23T07:14:52.574Z,116
2017-01-23T07:15:52.578Z,124
2017-01-23T07:16:52.970Z,136
2017-01-23T07:17:52.567Z,140
2017-01-23T07:18:52.148Z,148
2017-01-23T07:19:52.551Z,152
2017-01-23T07:20:52.554Z,172
2017-01-23T07:21:52.546Z,176
2017-01-23T07:22:52.959Z,192
2017-01-23T07:23:52.538Z,188
2017-01-23T07:24:52.527Z,196
2017-01-23T07:25:52.939Z,200
2017-01-23T07:26:52.527Z,212
2017-01-23T07:27:52.931Z,220
2017-01-23T07:28:52.523Z,224
2017-01-23T07:29:52.926Z,236
2017-01-23T07:30:52.527Z,240
2017-01-23T07:31:52.095Z,248
2017-01-23T07:32:52.511Z,260
2017-01-23T07:33:52.503Z,268
2017-01-23T07:34:51.675Z,280
2017-01-23T07:35:52.487Z,292
2017-01-23T07:36:52.488Z,304
2017-01-23T07:37:52.479Z,320
2017-01-23T07:38:52.887Z,332
2017-01-23T07:39:52.059Z,340
2017-01-23T07:40:52.880Z,352
2017-01-23T07:41:52.464Z,360
2017-01-23T07:42:52.867Z,368
2017-01-23T07:43:52.448Z,384
2017-01-23T07:44:52.483Z,392
2017-01-23T07:45:52.040Z,412
2017-01-23T07:46:52.435Z,420
2017-01-23T07:47:52.028Z,432
2017-01-23T07:48:52.031Z,448
2017-01-23T07:49:51.611Z,456
2017-01-23T07:50:52.428Z,476
2017-01-23T07:51:52.012Z,488
2017-01-23T07:52:52.835Z,492
2017-01-23T07:53:52.405Z,496
2017-01-23T07:54:52.004Z,508
2017-01-23T07:55:52.412Z,528
2017-01-23T07:56:52.400Z,544
2017-01-23T07:57:51.996Z,548
2017-01-23T07:58:52.808Z,564
2017-01-23T07:59:52.806Z,580
2017-01-23T08:00:51.972Z,580
2017-01-23T08:01:52.380Z,596
2017-01-23T08:02:52.800Z,616
2017-01-23T08:03:52.780Z,640
2017-01-23T08:04:52.376Z,664
2017-01-23T08:05:52.804Z,684
2017-01-23T08:06:51.944Z,708
2017-01-23T08:07:52.776Z,712
2017-01-23T08:08:52.772Z,732
2017-01-23T08:09:52.356Z,744
2017-01-23T08:10:52.353Z,756
2017-01-23T08:11:52.345Z,784
2017-01-23T08:12:52.753Z,804
2017-01-23T08:13:52.348Z,820
2017-01-23T08:14:52.333Z,848
2017-01-23T08:15:52.328Z,856
2017-01-23T08:16:52.325Z,844
2017-01-23T08:17:52.313Z,832
2017-01-23T08:18:52.752Z,840
2017-01-23T08:19:52.309Z,856
2017-01-23T08:20:51.904Z,880
2017-01-23T08:21:51.477Z,888
2017-01-23T08:22:52.739Z,916
2017-01-23T08:23:52.713Z,916
2017-01-23T08:24:52.293Z,916
2017-01-23T08:25:52.693Z,940
2017-01-23T08:26:52.689Z,952
2017-01-23T08:27:52.281Z,956
2017-01-23T08:28:52.290Z,964
2017-01-23T08:29:52.287Z,976
2017-01-23T08:30:52.273Z,988
2017-01-23T08:31:52.673Z,996
2017-01-23T08:32:52.265Z,1008
2017-01-23T08:33:51.848Z,1016
2017-01-23T08:34:52.244Z,1036
2017-01-23T08:35:52.657Z,1044
2017-01-23T08:36:52.245Z,1052
2017-01-23T08:37:52.273Z,1056
2017-01-23T08:38:52.242Z,1072
2017-01-23T08:39:52.235Z,1096
2017-01-23T08:40:52.245Z,1096
2017-01-23T08:41:51.821Z,1108
2017-01-23T08:42:52.229Z,1128
2017-01-23T08:43:52.214Z,1168
2017-01-23T08:44:52.217Z,1188
2017-01-23T08:45:52.625Z,1200
2017-01-23T08:46:51.799Z,1232
2017-01-23T08:47:52.197Z,1288
2017-01-23T08:48:52.205Z,1324
2017-01-23T08:49:52.202Z,1360
2017-01-23T08:50:52.185Z,1372
2017-01-23T08:51:52.588Z,1352
2017-01-23T08:52:52.178Z,1344
2017-01-23T08:53:52.596Z,1336
2017-01-23T08:54:51.757Z,1348
2017-01-23T08:55:52.193Z,1356
2017-01-23T08:56:52.160Z,1384
2017-01-23T08:57:52.152Z,1412
2017-01-23T08:58:52.156Z,1476
2017-01-23T08:59:51.332Z,1524
2017-01-23T09:00:52.148Z,1508
2017-01-23T09:01:52.556Z,1512
2017-01-23T09:02:52.137Z,1568
2017-01-23T09:03:52.137Z,1580
2017-01-23T09:04:52.548Z,1612
2017-01-23T09:05:52.125Z,1632
2017-01-23T09:06:52.532Z,1652
2017-01-23T09:07:52.117Z,1664
2017-01-23T09:08:51.701Z,1656
2017-01-23T09:09:52.120Z,1680
2017-01-23T09:10:51.701Z,1708
2017-01-23T09:11:52.108Z,1728
2017-01-23T09:12:51.689Z,1744
2017-01-23T09:13:52.505Z,1760
2017-01-23T09:14:51.677Z,1736
2017-01-23T09:15:52.113Z,1744
2017-01-23T09:16:52.089Z,1764
2017-01-23T09:17:52.077Z,1764
2017-01-23T09:18:52.085Z,1800
2017-01-23T09:19:52.081Z,1836
2017-01-23T09:20:52.494Z,1856
2017-01-23T09:21:51.654Z,1888
2017-01-23T09:22:52.062Z,1896
2017-01-23T09:23:52.069Z,1868
2017-01-23T09:24:52.058Z,1864
2017-01-23T09:25:52.463Z,1888
2017-01-23T09:26:52.054Z,1896
2017-01-23T09:27:52.046Z,1944
2017-01-23T09:28:52.039Z,1968
2017-01-23T09:29:52.058Z,1976
2017-01-23T09:30:52.026Z,1964
2017-01-23T09:31:51.615Z,1984
2017-01-23T09:32:52.031Z,2000
2017-01-23T09:33:51.606Z,2024
2017-01-23T09:34:52.439Z,2076
2017-01-23T09:35:52.423Z,2132
2017-01-23T09:36:51.612Z,2168
2017-01-23T09:37:51.595Z,2168
2017-01-23T09:38:51.607Z,2168
2017-01-23T09:39:51.999Z,2168
2017-01-23T09:40:52.406Z,2184
2017-01-23T09:41:51.991Z,2180
2017-01-23T09:42:51.991Z,2136
2017-01-23T09:43:52.403Z,2156
2017-01-23T09:44:52.396Z,2188
2017-01-23T09:45:51.975Z,2180
2017-01-23T09:46:51.975Z,2160
2017-01-23T09:47:51.971Z,2164
2017-01-23T09:48:51.967Z,2196
2017-01-23T09:49:52.379Z,2232
2017-01-23T09:50:51.551Z,2272
2017-01-23T09:51:51.956Z,2276
2017-01-23T09:52:52.367Z,2280
2017-01-23T09:53:51.132Z,2288
2017-01-23T09:54:52.352Z,2304
2017-01-23T09:55:51.944Z,2332
2017-01-23T09:56:51.532Z,2344
2017-01-23T09:57:51.532Z,2356
2017-01-23T09:58:51.933Z,2444
2017-01-23T09:59:52.340Z,2540
2017-01-23T10:00:51.929Z,2592
2017-01-23T10:01:52.332Z,2572
2017-01-23T10:02:52.324Z,2576
2017-01-23T10:03:51.492Z,2572
2017-01-23T10:04:51.908Z,2604
2017-01-23T10:05:51.904Z,2632
2017-01-23T10:06:52.307Z,2712
2017-01-23T10:07:51.488Z,2764
2017-01-23T10:08:51.897Z,2756
2017-01-23T10:09:52.304Z,2680
2017-01-23T10:10:52.309Z,2600
2017-01-23T10:11:52.306Z,2520
2017-01-23T10:12:51.477Z,2468
2017-01-23T10:13:51.877Z,2428
2017-01-23T10:14:51.904Z,2412
2017-01-23T10:15:52.288Z,2436
2017-01-23T10:16:51.881Z,2436
2017-01-23T10:17:51.872Z,2460
2017-01-23T10:18:51.860Z,2420
2017-01-23T10:19:51.457Z,2444
2017-01-23T10:20:51.864Z,2496
2017-01-23T10:21:51.856Z,2528
2017-01-23T10:22:51.853Z,2520
2017-01-23T10:23:51.848Z,2536
2017-01-23T10:24:51.434Z,2520
2017-01-23T10:25:51.841Z,2596
2017-01-23T10:26:51.429Z,2576
2017-01-23T10:27:52.244Z,2560
2017-01-23T10:28:52.245Z,2548
2017-01-23T10:29:51.825Z,2564
2017-01-23T10:30:51.821Z,2592
2017-01-23T10:31:51.825Z,2640
2017-01-23T10:32:51.825Z,2712
2017-01-23T10:33:52.233Z,2732
2017-01-23T10:34:52.232Z,2760
2017-01-23T10:35:51.809Z,2796
2017-01-23T10:36:52.217Z,2876
2017-01-23T10:37:51.797Z,2964
2017-01-23T10:38:51.793Z,3004
2017-01-23T10:39:51.798Z,2984
2017-01-23T10:40:51.796Z,2936
2017-01-23T10:41:51.382Z,2864
2017-01-23T10:42:51.373Z,2776
2017-01-23T10:43:51.781Z,2732
2017-01-23T10:44:52.193Z,2684
2017-01-23T10:45:51.778Z,2636
2017-01-23T10:46:51.777Z,2580
2017-01-23T10:47:51.770Z,2608
2017-01-23T10:48:50.945Z,2636
2017-01-23T10:49:51.358Z,2656
2017-01-23T10:50:51.346Z,2720
2017-01-23T10:51:51.338Z,2744
2017-01-23T10:52:51.342Z,2804
2017-01-23T10:53:51.746Z,2848
2017-01-23T10:54:52.184Z,2884
2017-01-23T10:55:51.735Z,2936
2017-01-23T10:56:52.150Z,2956
2017-01-23T10:57:52.154Z,2984
2017-01-23T10:58:51.734Z,3000
2017-01-23T10:59:51.729Z,3008
2017-01-23T11:00:51.726Z,2964
2017-01-23T11:01:51.726Z,2884
2017-01-23T11:02:52.130Z,2812
2017-01-23T11:03:51.303Z,2808
2017-01-23T11:04:51.720Z,2808
2017-01-23T11:05:51.733Z,2820
2017-01-23T11:06:51.710Z,2812
2017-01-23T11:07:51.707Z,2804
2017-01-23T11:08:51.287Z,2776
2017-01-23T11:09:51.703Z,2740
2017-01-23T11:10:51.287Z,2780
2017-01-23T11:11:51.279Z,2796
2017-01-23T11:12:51.679Z,2764
2017-01-23T11:13:51.687Z,2788
2017-01-23T11:14:51.684Z,2804
2017-01-23T11:15:52.105Z,2884
2017-01-23T11:16:51.683Z,2900
2017-01-23T11:17:51.667Z,2936
2017-01-23T11:18:51.676Z,2964
2017-01-23T11:19:51.667Z,2908
2017-01-23T11:20:52.076Z,2872
2017-01-23T11:21:51.247Z,2904
2017-01-23T11:22:52.072Z,2904
2017-01-23T11:23:52.084Z,2948
2017-01-23T11:24:51.247Z,2992
2017-01-23T11:25:51.235Z,2984
2017-01-23T11:26:52.063Z,2964
2017-01-23T11:27:51.643Z,2972
2017-01-23T11:28:51.644Z,3000
2017-01-23T11:29:51.661Z,3048
2017-01-23T11:30:52.044Z,3072
2017-01-23T11:31:51.628Z,3040
2017-01-23T11:32:52.044Z,3088
2017-01-23T11:33:52.043Z,3144
2017-01-23T11:34:51.620Z,3216
2017-01-23T11:35:51.624Z,3264
2017-01-23T11:36:52.035Z,3276
2017-01-23T11:37:51.207Z,3228
2017-01-23T11:38:50.803Z,3196
2017-01-23T11:39:52.020Z,3160
2017-01-23T11:40:51.608Z,3152
2017-01-23T11:41:51.192Z,3168
2017-01-23T11:42:51.600Z,3136
2017-01-23T11:43:52.015Z,3112
2017-01-23T11:44:52.008Z,3120
2017-01-23T11:45:51.596Z,2988
2017-01-23T11:46:51.596Z,3064
2017-01-23T11:47:51.588Z,3028
2017-01-23T11:48:52.012Z,2988
2017-01-23T11:49:51.176Z,2952
2017-01-23T11:50:51.580Z,2932
2017-01-23T11:51:51.581Z,2932
2017-01-23T11:52:51.991Z,2932
2017-01-23T11:53:51.160Z,2916
2017-01-23T11:54:51.596Z,2924
2017-01-23T11:55:51.560Z,2944
2017-01-23T11:56:51.980Z,2936
2017-01-23T11:57:51.969Z,2984
2017-01-23T11:58:51.561Z,3044
2017-01-23T11:59:51.560Z,3088
2017-01-23T12:00:51.553Z,3120
2017-01-23T12:01:51.556Z,3148
2017-01-23T12:02:51.961Z,3172
2017-01-23T12:03:51.953Z,3188
2017-01-23T12:04:51.544Z,3204
2017-01-23T12:05:51.129Z,3212
2017-01-23T12:06:51.949Z,3196
2017-01-23T12:07:50.728Z,3208
2017-01-23T12:08:51.941Z,3192
2017-01-23T12:09:51.120Z,3144
2017-01-23T12:10:51.533Z,3112
2017-01-23T12:11:51.930Z,3088
2017-01-23T12:12:51.527Z,3044
2017-01-23T12:13:51.921Z,2968
2017-01-23T12:14:51.102Z,2880
2017-01-23T12:15:51.928Z,2840
2017-01-23T12:16:51.090Z,2840
2017-01-23T12:17:51.917Z,2828
2017-01-23T12:18:51.498Z,2840
2017-01-23T12:19:51.086Z,2884
2017-01-23T12:20:51.497Z,2948
2017-01-23T12:21:51.094Z,2984
2017-01-23T12:22:51.493Z,3040
2017-01-23T12:23:51.494Z,3108
2017-01-23T12:24:50.670Z,3168
2017-01-23T12:25:51.486Z,3248
2017-01-23T12:26:51.893Z,3272
2017-01-23T12:27:51.886Z,3248
2017-01-23T12:28:51.882Z,3204
2017-01-23T12:29:51.479Z,3160
2017-01-23T12:30:51.478Z,3128
2017-01-23T12:31:51.878Z,3108
2017-01-23T12:32:51.878Z,3088
2017-01-23T12:33:51.869Z,3092
2017-01-23T12:34:51.470Z,3112
2017-01-23T12:35:51.042Z,3112
2017-01-23T12:36:51.454Z,3076
2017-01-23T12:37:51.858Z,3056
2017-01-23T12:38:51.038Z,3056
2017-01-23T12:39:51.884Z,3052
2017-01-23T12:40:51.450Z,3040
2017-01-23T12:41:51.063Z,3060
2017-01-23T12:42:51.450Z,3068
2017-01-23T12:43:51.452Z,3052
2017-01-23T12:44:51.434Z,3040
2017-01-23T12:45:51.843Z,2968
2017-01-23T12:46:51.439Z,2900
2017-01-23T12:47:51.838Z,2868
2017-01-23T12:48:51.435Z,2844
2017-01-23T12:49:51.839Z,2808
2017-01-23T12:50:51.011Z,2796
2017-01-23T12:51:51.031Z,2788
2017-01-23T12:52:51.005Z,2792
2017-01-23T12:53:51.404Z,2760
2017-01-23T12:54:51.003Z,2704
2017-01-23T12:55:51.002Z,2648
2017-01-23T12:56:51.398Z,2604
2017-01-23T12:57:50.995Z,2592
2017-01-23T12:58:51.403Z,2592
2017-01-23T12:59:50.987Z,2576
2017-01-23T13:00:51.400Z,2572
2017-01-23T13:01:50.983Z,2576
2017-01-23T13:02:51.395Z,2568
2017-01-23T13:03:51.387Z,2552
2017-01-23T13:04:50.979Z,2540
2017-01-23T13:05:50.971Z,2532
2017-01-23T13:06:51.371Z,2532
2017-01-23T13:07:51.795Z,2548
2017-01-23T13:08:51.383Z,2536
2017-01-23T13:09:51.788Z,2524
2017-01-23T13:10:51.380Z,2524
2017-01-23T13:11:51.359Z,2528
2017-01-23T13:12:50.955Z,2504
2017-01-23T13:13:51.779Z,2476
2017-01-23T13:14:51.371Z,2460
2017-01-23T13:15:51.360Z,2452
2017-01-23T13:16:51.356Z,2440
2017-01-23T13:17:51.771Z,2420
2017-01-23T13:18:51.760Z,2416
2017-01-23T13:19:51.356Z,2428
2017-01-23T13:20:50.939Z,2432
2017-01-23T13:21:51.344Z,2432
2017-01-23T13:22:51.348Z,2444
2017-01-23T13:23:51.747Z,2456
2017-01-23T13:24:51.752Z,2468
2017-01-23T13:25:51.753Z,2456
2017-01-23T13:26:51.327Z,2444
2017-01-23T13:27:51.773Z,2424
2017-01-23T13:28:51.352Z,2404
2017-01-23T13:29:50.501Z,2360
2017-01-23T13:30:51.736Z,2328
2017-01-23T13:31:51.320Z,2308
2017-01-23T13:32:50.908Z,2292
2017-01-23T13:33:51.755Z,2304
2017-01-23T13:34:51.303Z,2324
2017-01-23T13:35:51.309Z,2328
2017-01-23T13:36:51.748Z,2348
2017-01-23T13:37:51.301Z,2360
2017-01-23T13:38:50.896Z,2320
2017-01-23T13:39:51.308Z,2260
2017-01-23T13:40:51.301Z,2212
2017-01-23T13:41:51.292Z,2192
2017-01-23T13:42:51.300Z,2184
2017-01-23T13:43:51.287Z,2152
2017-01-23T13:44:51.295Z,2156
2017-01-23T13:45:51.692Z,2160
2017-01-23T13:46:50.875Z,2140
2017-01-23T13:47:51.283Z,2124
2017-01-23T13:48:50.859Z,2112
2017-01-23T13:49:51.263Z,2092
2017-01-23T13:50:51.274Z,2056
2017-01-23T13:51:50.855Z,2028
2017-01-23T13:52:51.671Z,2000
2017-01-23T13:53:51.258Z,1972
2017-01-23T13:54:51.259Z,1940
2017-01-23T13:55:51.250Z,1900
2017-01-23T13:56:51.670Z,1884
2017-01-23T13:57:51.670Z,1864
2017-01-23T13:58:51.654Z,1832
2017-01-23T13:59:51.650Z,1780
2017-01-23T14:00:51.242Z,1772
2017-01-23T14:01:51.230Z,1800
2017-01-23T14:02:50.830Z,1892
2017-01-23T14:03:51.638Z,1888